Terminal Aerodrome Forecast
Issued by NWS Quad Cities IA IL

Home | Current Version | Previous Version | Text Only | Print | Product List | Glossary On
Versions: 1 2 3 4 5 6 7 8 9 10 11 12 13 14 15
644
FTUS43 KDVN 100211 AAA
TAFDBQ
TAF AMD
KDBQ 100211Z 1002/1024 33012KT P6SM SKC
     FM101800 33008KT P6SM BKN050=

USA.gov is the U.S. government's official web portal to all federal, state and local government web resources and services.